Sappemeer, Netherlands
Current Conditions -  °F | °C
As of 4:25 AM on Saturday 01 Nov 2014 (Local Time) from EHGG Reporting Station
Clear Clear  
Wind Chill: 54°   Ceiling: Unl
Heat Index: 54°   Visibility: 6mi
Dew Point: 50°   Wind: 7mph
Humidity: 88%   Direction: 180°S
Pressure: 30.03"   Gusts: NA
Location:  53.16°N, 6.79°E
Report Text: EHGG 010325Z AUTO 18006KT 9999 NSC 12/10 Q1017
Loading
Personal Weather Stations






























Interactive Weather Map
Tropical Storm Tracking
New forecast layout! Learn more

10-Day Weather Forecast

Advertisements
Track Severe Weather on mobile